Time;durP1;ratioP1;P1;durP2;ratioP2;P2;SDS_P1;SDS_P2;PMS_P1;PMS_P2;Temp;Humidity;BMP_temperature;BMP_pressure;BME280_temperature;BME280_humidity;BME280_pressure;Samples;Min_cycle;Max_cycle;Signal;HPM_P1;HPM_P2
2024/03/31 00:00:16;;;;;;;45.50;11.25;;;;;;;11.37;71.96;96473.72;5004507;28;20064;-77
2024/03/31 00:02:46;;;;;;;46.33;12.02;;;;;;;11.45;72.39;96490.06;5002935;28;20108;-76
2024/03/31 00:05:12;;;;;;;41.13;10.55;;;;;;;11.35;72.20;96486.69;4986792;28;20120;-76
2024/03/31 00:07:37;;;;;;;35.53;10.18;;;;;;;11.27;72.83;96482.75;5005596;28;20025;-77
2024/03/31 00:10:03;;;;;;;45.15;11.13;;;;;;;11.40;72.85;96497.41;4985507;28;20041;-77
2024/03/31 00:12:33;;;;;;;41.08;10.23;;;;;;;11.35;73.02;96506.34;5051892;22;20374;-75
2024/03/31 00:15:00;;;;;;;49.97;10.85;;;;;;;11.30;73.09;96498.34;5053378;28;20076;-75
2024/03/31 00:17:29;;;;;;;45.55;10.52;;;;;;;11.30;73.40;96508.31;5015924;28;20017;-75
2024/03/31 00:20:00;;;;;;;45.53;10.85;;;;;;;11.27;73.24;96500.81;5025901;28;20398;-75
2024/03/31 00:22:26;;;;;;;42.45;10.27;;;;;;;11.21;73.26;96483.09;5038624;28;20077;-75
2024/03/31 00:24:56;;;;;;;37.80;10.55;;;;;;;11.23;73.18;96494.38;5041872;28;20027;-76
2024/03/31 00:27:29;;;;;;;38.55;10.85;;;;;;;11.20;73.48;96497.69;5056642;28;20102;-75
2024/03/31 00:30:01;;;;;;;48.92;10.35;;;;;;;11.17;73.13;96487.47;5029935;28;20067;-75
2024/03/31 00:32:27;;;;;;;43.20;11.35;;;;;;;11.16;73.22;96475.09;5022662;28;20032;-76
2024/03/31 00:34:54;;;;;;;46.38;10.57;;;;;;;11.20;73.61;96459.97;5052731;28;20036;-75
2024/03/31 00:37:20;;;;;;;53.53;10.63;;;;;;;11.16;73.66;96458.91;5036852;28;20043;-76
2024/03/31 00:39:50;;;;;;;42.70;11.48;;;;;;;11.28;73.24;96467.38;5032927;28;20035;-76
2024/03/31 00:42:19;;;;;;;45.72;10.75;;;;;;;11.15;73.19;96441.16;5048089;28;20032;-77
2024/03/31 00:44:45;;;;;;;54.92;10.52;;;;;;;11.19;73.41;96447.56;5031206;28;20032;-75
2024/03/31 00:47:10;;;;;;;36.80;9.88;;;;;;;11.19;74.04;96447.56;5035983;28;20498;-75
2024/03/31 00:49:37;;;;;;;38.97;10.02;;;;;;;11.16;73.59;96442.75;5043887;28;20483;-75
2024/03/31 00:52:03;;;;;;;42.63;10.05;;;;;;;11.22;73.65;96447.00;5054733;28;20426;-75
2024/03/31 00:54:41;;;;;;;47.55;9.70;;;;;;;11.09;73.90;96422.38;5056083;28;20064;-76
2024/03/31 00:57:16;;;;;;;42.40;11.93;;;;;;;11.06;74.42;96414.88;5049637;28;20438;-75
2024/03/31 00:59:43;;;;;;;50.17;13.43;;;;;;;11.05;74.55;96432.13;5037152;28;20043;-74
2024/03/31 01:02:12;;;;;;;49.22;12.88;;;;;;;10.92;75.36;96435.53;5022323;28;20024;-74
2024/03/31 01:04:38;;;;;;;52.40;13.50;;;;;;;10.89;75.38;96444.19;5054066;28;20029;-75
2024/03/31 01:07:04;;;;;;;44.35;12.93;;;;;;;10.86;75.70;96444.78;5038555;28;20024;-74
2024/03/31 01:09:36;;;;;;;50.00;11.50;;;;;;;10.84;75.63;96452.34;5023233;28;20679;-75
2024/03/31 01:12:06;;;;;;;46.70;11.23;;;;;;;10.75;75.66;96421.75;5045885;28;20036;-75
2024/03/31 01:14:35;;;;;;;42.53;11.45;;;;;;;10.81;76.29;96431.38;5047608;28;20083;-75
2024/03/31 01:17:01;;;;;;;53.20;11.52;;;;;;;10.82;76.10;96432.97;5073337;28;20036;-74
2024/03/31 01:19:27;;;;;;;50.20;12.07;;;;;;;10.83;75.79;96429.19;5054952;28;20421;-74
2024/03/31 01:21:52;;;;;;;50.42;11.43;;;;;;;10.88;75.89;96428.31;5046661;28;20032;-73
2024/03/31 01:24:18;;;;;;;46.55;12.02;;;;;;;10.87;75.76;96435.63;5018571;28;20029;-74
2024/03/31 01:26:43;;;;;;;46.08;12.65;;;;;;;10.93;75.82;96450.59;5053433;28;20529;-74
2024/03/31 01:29:08;;;;;;;49.38;12.88;;;;;;;10.95;75.85;96455.69;5051415;28;20021;-74
2024/03/31 01:31:34;;;;;;;47.97;12.57;;;;;;;10.88;75.80;96453.34;5072343;28;20108;-75
2024/03/31 01:34:01;;;;;;;55.90;12.95;;;;;;;10.88;75.51;96452.56;5054472;28;20055;-75
2024/03/31 01:36:27;;;;;;;51.33;12.55;;;;;;;10.92;75.60;96462.47;5038272;28;20032;-75
2024/03/31 01:38:53;;;;;;;47.05;12.68;;;;;;;10.91;75.93;96466.25;5048936;28;20283;-75
2024/03/31 01:41:18;;;;;;;43.42;12.57;;;;;;;10.84;76.00;96463.13;5038115;28;20036;-75
2024/03/31 01:43:43;;;;;;;46.30;11.55;;;;;;;10.81;75.98;96463.69;5045003;28;20411;-76
2024/03/31 01:46:09;;;;;;;50.03;12.27;;;;;;;10.86;75.67;96470.91;5034928;28;20072;-74
2024/03/31 01:48:35;;;;;;;42.53;10.88;;;;;;;10.83;75.83;96466.88;5076866;28;20115;-73
2024/03/31 01:51:00;;;;;;;49.63;11.85;;;;;;;10.86;75.90;96476.28;5038276;28;20043;-75
2024/03/31 01:53:26;;;;;;;45.38;11.25;;;;;;;10.84;75.48;96468.50;5052656;28;20119;-75
2024/03/31 01:55:51;;;;;;;54.17;11.73;;;;;;;10.81;75.74;96468.25;5041166;28;20036;-75
2024/03/31 01:58:17;;;;;;;39.55;10.90;;;;;;;10.81;75.83;96484.41;5043850;28;20020;-74
2024/03/31 02:00:42;;;;;;;48.50;10.82;;;;;;;10.83;75.94;96488.44;5063421;28;20032;-75
2024/03/31 02:03:08;;;;;;;46.28;10.57;;;;;;;10.77;76.27;96478.00;5069378;28;20123;-74
2024/03/31 02:05:33;;;;;;;50.42;10.35;;;;;;;10.82;75.83;96492.22;5022499;28;20039;-74
2024/03/31 02:07:59;;;;;;;41.80;10.23;;;;;;;10.84;75.90;96484.66;5036706;28;20020;-75
2024/03/31 02:10:24;;;;;;;40.08;10.80;;;;;;;10.84;75.72;96490.03;5053251;28;20033;-74
2024/03/31 02:12:50;;;;;;;40.95;9.80;;;;;;;10.81;75.98;96490.59;5074553;28;20443;-74
2024/03/31 02:15:16;;;;;;;39.75;10.75;;;;;;;10.75;75.98;96502.53;5058322;28;20037;-74
2024/03/31 02:17:41;;;;;;;43.40;10.95;;;;;;;10.62;76.57;96497.03;5071918;28;20426;-74
2024/03/31 02:20:09;;;;;;;45.90;11.25;;;;;;;10.54;77.12;96525.38;5061221;28;20483;-74
2024/03/31 02:22:35;;;;;;;42.25;10.80;;;;;;;10.44;76.92;96501.25;5039362;28;20112;-74
2024/03/31 02:25:48;;;;;;;44.75;11.15;;;;;;;10.60;76.90;96537.69;5049062;28;20060;-74
2024/03/31 02:27:53;;;;;;;44.25;11.23;;;;;;;10.59;77.10;96549.56;5040662;28;20040;-73
2024/03/31 02:30:18;;;;;;;50.92;11.43;;;;;;;10.52;77.42;96535.63;5039900;28;20058;-74
2024/03/31 02:32:44;;;;;;;47.83;10.77;;;;;;;10.57;77.80;96549.00;5039774;28;20545;-73
2024/03/31 02:35:09;;;;;;;45.63;10.90;;;;;;;10.54;77.45;96546.91;5057979;28;20039;-73
2024/03/31 02:37:35;;;;;;;43.97;10.60;;;;;;;10.47;77.34;96551.00;5050263;28;20086;-74
2024/03/31 02:40:00;;;;;;;38.20;10.32;;;;;;;10.59;77.46;96563.00;5060123;28;20403;-75
2024/03/31 02:42:30;;;;;;;41.58;10.15;;;;;;;10.68;77.46;96555.94;5055517;28;20031;-76
2024/03/31 02:44:57;;;;;;;47.25;11.50;;;;;;;10.70;77.19;96561.81;5027134;28;20526;-76
2024/03/31 02:47:24;;;;;;;38.80;10.20;;;;;;;10.63;77.31;96553.28;5057558;28;20440;-75
2024/03/31 02:49:50;;;;;;;37.47;10.95;;;;;;;10.67;77.07;96546.22;5058155;28;20059;-76
2024/03/31 02:52:21;;;;;;;40.53;9.18;;;;;;;10.70;77.09;96545.66;5033420;28;20043;-75
2024/03/31 02:54:48;;;;;;;39.40;9.43;;;;;;;10.80;76.88;96564.41;5038991;28;20047;-75
2024/03/31 02:57:21;;;;;;;41.35;9.55;;;;;;;10.82;76.87;96562.25;5057941;28;20028;-75
2024/03/31 02:59:49;;;;;;;37.88;8.80;;;;;;;10.84;77.02;96570.03;5027239;28;20033;-74
2024/03/31 03:02:14;;;;;;;40.38;9.07;;;;;;;10.85;76.82;96560.88;5040322;28;20166;-76
2024/03/31 03:04:42;;;;;;;42.03;9.50;;;;;;;10.85;77.05;96558.94;5037337;28;20043;-74
2024/03/31 03:07:09;;;;;;;43.20;9.20;;;;;;;10.86;76.46;96551.69;5033880;28;20115;-77
2024/03/31 03:09:36;;;;;;;37.50;10.18;;;;;;;10.84;76.71;96560.06;5048882;28;20036;-76
2024/03/31 03:12:03;;;;;;;42.78;10.55;;;;;;;10.85;76.85;96545.50;5039465;28;20020;-76
2024/03/31 03:14:31;;;;;;;40.72;10.45;;;;;;;10.84;76.23;96554.66;5049339;28;20044;-77
2024/03/31 03:16:57;;;;;;;36.53;8.75;;;;;;;10.57;76.54;96522.09;5041229;28;20565;-75
2024/03/31 03:19:24;;;;;;;34.53;9.30;;;;;;;10.76;76.84;96555.28;5040096;28;20032;-76
2024/03/31 03:21:50;;;;;;;31.25;9.40;;;;;;;10.70;76.34;96526.00;5015215;28;20098;-76
2024/03/31 03:24:16;;;;;;;36.28;9.48;;;;;;;10.79;76.70;96541.25;5043270;28;20492;-73
2024/03/31 03:26:45;;;;;;;40.60;10.13;;;;;;;10.76;76.67;96536.44;5040195;28;20103;-75
2024/03/31 03:29:11;;;;;;;33.88;9.00;;;;;;;10.62;76.42;96503.22;5020036;28;20040;-75
2024/03/31 03:31:38;;;;;;;38.17;9.65;;;;;;;10.85;76.57;96539.31;5054503;28;20024;-74
2024/03/31 03:34:05;;;;;;;39.58;9.77;;;;;;;10.80;76.23;96520.53;5020057;28;20119;-75
2024/03/31 03:36:31;;;;;;;30.85;9.43;;;;;;;10.85;76.29;96523.94;5029957;28;20432;-77
2024/03/31 03:38:58;;;;;;;36.45;9.27;;;;;;;10.73;76.25;96507.41;5058278;28;20037;-74
2024/03/31 03:41:28;;;;;;;37.13;9.43;;;;;;;10.84;76.38;96516.97;5057253;28;20467;-75
2024/03/31 03:43:54;;;;;;;39.28;9.25;;;;;;;10.76;76.05;96490.66;5056520;28;20039;-75
2024/03/31 03:46:20;;;;;;;39.70;9.25;;;;;;;10.84;76.13;96500.00;5074633;28;20378;-74
2024/03/31 03:48:47;;;;;;;40.67;9.65;;;;;;;10.83;75.86;96488.44;5056223;28;20029;-74
2024/03/31 03:51:12;;;;;;;43.20;9.93;;;;;;;10.69;76.34;96465.19;5056478;28;20022;-74
2024/03/31 03:53:38;;;;;;;41.97;11.18;;;;;;;10.64;77.02;96431.03;5039673;28;20074;-73
2024/03/31 03:56:05;;;;;;;34.17;8.90;;;;;;;10.66;76.85;96418.13;5023448;28;20024;-74
2024/03/31 03:58:31;;;;;;;36.33;9.70;;;;;;;10.56;77.06;96404.78;5054235;28;20028;-74
2024/03/31 04:00:56;;;;;;;40.20;10.40;;;;;;;10.54;77.77;96415.03;5031005;28;20100;-74
2024/03/31 04:03:22;;;;;;;39.35;9.45;;;;;;;10.47;77.81;96424.53;5056074;28;20182;-75
2024/03/31 04:05:57;;;;;;;45.60;10.40;;;;;;;10.41;77.73;96453.38;5073930;28;20388;-75
2024/03/31 04:08:23;;;;;;;38.55;10.23;;;;;;;10.46;78.18;96445.25;5031038;28;20538;-74
2024/03/31 04:10:48;;;;;;;39.58;9.07;;;;;;;10.57;78.24;96438.66;5039425;28;20490;-73
2024/03/31 04:13:14;;;;;;;34.17;9.10;;;;;;;10.51;78.54;96426.34;5039054;28;20388;-74
2024/03/31 04:15:40;;;;;;;30.35;8.68;;;;;;;10.34;78.32;96394.53;5039088;28;20028;-74
2024/03/31 04:18:06;;;;;;;30.63;9.93;;;;;;;10.41;78.52;96419.19;5036141;28;20035;-75
2024/03/31 04:20:39;;;;;;;36.38;9.05;;;;;;;10.44;78.52;96425.91;5052896;28;20022;-74
2024/03/31 04:23:05;;;;;;;38.78;10.80;;;;;;;10.45;78.41;96424.81;5040632;28;20037;-73
2024/03/31 04:25:31;;;;;;;37.90;9.90;;;;;;;10.52;78.40;96440.63;5040743;28;20051;-73
2024/03/31 04:27:56;;;;;;;33.40;8.55;;;;;;;10.54;78.50;96444.63;5054822;28;20545;-74
2024/03/31 04:30:22;;;;;;;39.42;9.18;;;;;;;10.55;78.50;96432.75;5073176;28;20020;-74
2024/03/31 04:32:48;;;;;;;36.10;9.13;;;;;;;10.49;78.37;96427.72;5033708;28;20032;-73
2024/03/31 04:35:14;;;;;;;36.17;9.23;;;;;;;10.36;78.99;96440.00;5035697;28;20025;-74
2024/03/31 04:37:39;;;;;;;38.15;9.18;;;;;;;10.31;79.34;96466.94;5037867;28;20404;-74
2024/03/31 04:40:05;;;;;;;35.95;9.27;;;;;;;10.20;79.05;96452.78;5054436;28;20055;-73
2024/03/31 04:42:31;;;;;;;31.95;8.82;;;;;;;10.14;80.11;96480.03;5057866;28;20024;-73
2024/03/31 04:44:56;;;;;;;42.92;9.63;;;;;;;10.15;79.50;96442.06;5059549;28;20032;-74
2024/03/31 04:47:24;;;;;;;37.83;9.45;;;;;;;10.13;79.26;96463.06;5057834;28;20044;-74
2024/03/31 04:49:50;;;;;;;35.60;9.75;;;;;;;10.07;80.49;96496.47;5033883;28;20075;-74
2024/03/31 04:52:16;;;;;;;34.17;9.63;;;;;;;9.88;80.10;96449.03;5054136;28;20514;-74
2024/03/31 04:54:43;;;;;;;41.63;11.00;;;;;;;9.97;80.49;96482.28;5046357;28;20025;-74
2024/03/31 04:57:08;;;;;;;31.15;10.10;;;;;;;9.86;80.87;96472.72;5053942;28;20036;-74
2024/03/31 04:59:35;;;;;;;41.42;10.20;;;;;;;9.73;81.25;96469.59;5029274;28;20030;-73
2024/03/31 05:02:01;;;;;;;42.58;10.98;;;;;;;9.73;81.08;96472.28;5033213;28;20025;-73
2024/03/31 05:04:27;;;;;;;41.15;9.80;;;;;;;9.91;80.61;96481.56;5050333;28;20021;-73
2024/03/31 05:06:52;;;;;;;33.92;10.32;;;;;;;9.94;80.47;96474.81;5032503;28;20092;-73
2024/03/31 05:09:17;;;;;;;36.05;9.98;;;;;;;9.96;80.89;96461.88;5031936;28;20049;-73
2024/03/31 05:11:43;;;;;;;32.65;10.73;;;;;;;9.90;80.02;96444.97;5077139;28;20116;-73
2024/03/31 05:14:09;;;;;;;37.38;9.95;;;;;;;10.03;79.61;96462.34;5038341;28;20052;-73
2024/03/31 05:16:36;;;;;;;37.95;9.70;;;;;;;10.02;79.46;96472.31;5037627;28;20082;-73
2024/03/31 05:19:02;;;;;;;36.58;9.75;;;;;;;9.94;79.21;96458.69;5053444;28;20028;-73
2024/03/31 05:21:27;;;;;;;42.00;9.52;;;;;;;9.91;79.35;96461.91;5037402;28;20086;-73
2024/03/31 05:23:53;;;;;;;41.28;10.30;;;;;;;10.00;79.19;96481.72;5017396;28;20487;-75
2024/03/31 05:26:28;;;;;;;48.70;10.90;;;;;;;9.85;78.95;96466.53;5026941;28;20029;-73
2024/03/31 05:28:54;;;;;;;36.05;9.32;;;;;;;9.75;79.42;96462.03;5025476;28;20032;-73
2024/03/31 05:31:19;;;;;;;39.13;11.55;;;;;;;9.84;79.13;96480.25;5030366;28;20476;-73
2024/03/31 05:33:52;;;;;;;42.08;11.25;;;;;;;9.84;78.99;96491.00;5037905;28;20043;-73
2024/03/31 05:36:17;;;;;;;35.97;12.13;;;;;;;9.73;79.58;96493.78;5050900;28;20068;-73
2024/03/31 05:38:43;;;;;;;43.63;10.93;;;;;;;9.57;79.49;96497.66;5055250;28;20024;-73
2024/03/31 05:41:16;;;;;;;47.42;11.32;;;;;;;9.53;79.48;96504.69;5043201;28;20040;-72
2024/03/31 05:43:43;;;;;;;36.85;9.98;;;;;;;9.58;79.23;96501.97;5048681;28;20082;-73
2024/03/31 05:46:09;;;;;;;33.83;10.63;;;;;;;9.58;79.64;96498.47;5033906;28;20067;-73
2024/03/31 05:48:34;;;;;;;31.02;9.48;;;;;;;9.52;79.83;96495.00;5042321;28;20481;-74
2024/03/31 05:51:00;;;;;;;38.72;11.98;;;;;;;9.58;79.88;96504.66;5053616;28;20016;-74
2024/03/31 05:53:28;;;;;;;33.53;9.52;;;;;;;9.46;79.78;96493.44;5037255;28;20123;-74
2024/03/31 05:55:53;;;;;;;32.88;10.43;;;;;;;9.47;80.13;96492.38;5057159;28;20078;-74
2024/03/31 05:58:23;;;;;;;35.65;9.82;;;;;;;9.61;80.08;96520.19;5048059;28;20028;-75
2024/03/31 06:00:48;;;;;;;33.05;10.35;;;;;;;9.65;79.57;96507.03;5039301;28;20033;-75
2024/03/31 06:03:18;;;;;;;31.55;10.52;;;;;;;9.74;79.83;96522.28;5023825;28;20024;-76
2024/03/31 06:05:46;;;;;;;35.30;9.82;;;;;;;9.92;80.04;96536.91;5030733;28;20029;-76
2024/03/31 06:08:17;;;;;;;39.97;10.88;;;;;;;9.99;79.94;96537.41;5041182;28;20028;-76
2024/03/31 06:10:44;;;;;;;37.15;10.85;;;;;;;10.07;79.91;96544.88;5028510;28;20032;-73
2024/03/31 06:13:09;;;;;;;34.40;11.70;;;;;;;10.03;80.31;96553.78;5066117;28;20028;-76
2024/03/31 06:15:35;;;;;;;37.50;11.35;;;;;;;9.94;80.22;96525.91;5016221;28;20029;-73
2024/03/31 06:18:00;;;;;;;40.03;10.75;;;;;;;10.09;80.55;96517.69;5034562;28;20020;-73
2024/03/31 06:20:26;;;;;;;35.08;11.98;;;;;;;10.17;79.92;96511.75;5074318;28;20103;-73
2024/03/31 06:22:52;;;;;;;37.72;10.77;;;;;;;10.39;79.82;96536.28;5039632;28;20020;-73
2024/03/31 06:25:18;;;;;;;37.17;10.63;;;;;;;10.43;79.45;96531.97;5041537;28;20115;-73
2024/03/31 06:27:43;;;;;;;38.67;11.02;;;;;;;10.56;79.63;96542.03;5037156;28;20107;-73
2024/03/31 06:30:09;;;;;;;38.50;11.15;;;;;;;10.61;79.37;96544.69;5071095;28;20083;-73
2024/03/31 06:32:35;;;;;;;40.40;13.85;;;;;;;10.62;79.34;96551.66;5038999;28;20036;-73
2024/03/31 06:35:03;;;;;;;38.20;12.00;;;;;;;10.71;78.79;96551.88;5036641;28;20075;-75
2024/03/31 06:37:29;;;;;;;35.45;9.77;;;;;;;10.73;79.29;96544.28;5019857;28;20032;-74
2024/03/31 06:39:55;;;;;;;34.45;10.75;;;;;;;10.87;78.86;96545.22;5038088;28;20028;-75
2024/03/31 06:42:22;;;;;;;35.60;11.18;;;;;;;10.84;79.17;96538.50;5035038;28;20021;-75
2024/03/31 06:44:50;;;;;;;35.38;9.52;;;;;;;10.99;78.57;96551.78;5046521;23;20127;-77
2024/03/31 06:47:16;;;;;;;35.58;9.55;;;;;;;10.92;78.49;96524.41;5056146;28;20192;-74
2024/03/31 06:49:41;;;;;;;37.00;9.32;;;;;;;11.03;77.99;96533.19;5038388;28;20039;-75
2024/03/31 06:52:07;;;;;;;39.90;9.88;;;;;;;11.16;78.51;96537.06;5025315;28;20477;-75
2024/03/31 06:54:32;;;;;;;30.75;8.60;;;;;;;11.30;78.13;96556.81;5038852;28;20032;-76
2024/03/31 06:56:58;;;;;;;41.88;12.73;;;;;;;11.18;77.43;96516.81;5002948;28;20028;-75
2024/03/31 06:59:23;;;;;;;79.65;40.33;;;;;;;11.47;77.09;96546.34;5001384;28;20029;-75
2024/03/31 07:01:49;;;;;;;73.47;38.90;;;;;;;11.50;76.79;96552.00;5017075;28;20025;-75
2024/03/31 07:04:15;;;;;;;67.20;30.65;;;;;;;11.57;77.37;96530.06;5028018;28;20090;-77
2024/03/31 07:06:42;;;;;;;42.05;12.52;;;;;;;11.57;76.95;96536.25;5009055;28;20029;-77
2024/03/31 07:09:07;;;;;;;35.17;9.30;;;;;;;11.63;76.23;96520.78;5031948;28;20537;-77
2024/03/31 07:11:33;;;;;;;27.88;7.93;;;;;;;11.70;75.98;96526.66;5028662;28;20109;-77
2024/03/31 07:13:59;;;;;;;29.77;8.60;;;;;;;11.90;75.70;96549.81;5007353;28;20028;-77
2024/03/31 07:16:25;;;;;;;38.40;8.20;;;;;;;11.85;75.81;96537.22;5028683;28;20031;-77
2024/03/31 07:18:51;;;;;;;38.20;8.30;;;;;;;12.07;75.84;96556.28;5019569;28;20036;-77
2024/03/31 07:21:18;;;;;;;36.65;8.32;;;;;;;12.01;75.25;96552.06;5026274;28;20054;-74
2024/03/31 07:23:44;;;;;;;36.28;8.48;;;;;;;12.07;74.87;96545.50;5031733;28;20033;-76
2024/03/31 07:26:10;;;;;;;36.42;8.75;;;;;;;12.09;74.81;96527.13;5016211;28;20024;-77
2024/03/31 07:28:36;;;;;;;38.95;9.00;;;;;;;12.21;74.96;96538.25;5029828;28;20032;-77
2024/03/31 07:31:01;;;;;;;41.10;8.35;;;;;;;12.31;74.75;96551.59;5030339;28;20044;-77
2024/03/31 07:33:27;;;;;;;33.38;7.93;;;;;;;12.35;73.50;96538.28;5031629;28;20124;-77
2024/03/31 07:35:52;;;;;;;26.90;7.50;;;;;;;12.35;73.25;96531.00;5016515;28;20059;-77
2024/03/31 07:38:18;;;;;;;30.80;7.13;;;;;;;12.54;73.15;96543.63;5037259;28;20404;-77
2024/03/31 07:40:43;;;;;;;36.55;8.30;;;;;;;12.59;73.06;96538.94;5017826;28;20413;-77
2024/03/31 07:43:09;;;;;;;37.65;8.23;;;;;;;12.72;73.45;96540.09;5030882;28;20037;-77
2024/03/31 07:45:34;;;;;;;36.47;7.93;;;;;;;12.94;73.05;96553.69;5044723;28;20036;-77
2024/03/31 07:48:00;;;;;;;38.00;7.78;;;;;;;12.90;72.06;96534.59;5008273;28;20032;-77
2024/03/31 07:50:25;;;;;;;29.17;7.55;;;;;;;13.01;71.84;96537.88;5052258;28;20089;-77
2024/03/31 07:52:50;;;;;;;39.05;8.13;;;;;;;13.11;71.11;96532.31;5038965;28;20039;-75
2024/03/31 07:55:16;;;;;;;33.58;7.80;;;;;;;13.14;71.07;96527.09;5045102;28;20036;-78
2024/03/31 07:57:41;;;;;;;33.92;8.15;;;;;;;13.19;71.22;96531.59;5027577;28;20028;-77
2024/03/31 08:00:07;;;;;;;33.97;8.55;;;;;;;13.14;71.31;96510.88;5015221;28;20364;-77
2024/03/31 08:02:41;;;;;;;35.58;8.57;;;;;;;13.22;70.03;96501.28;5021887;28;20029;-77
2024/03/31 08:05:06;;;;;;;34.17;7.25;;;;;;;13.22;69.58;96506.69;5005888;28;20059;-77
2024/03/31 08:07:31;;;;;;;37.05;8.20;;;;;;;13.17;69.94;96504.06;5046557;28;20490;-77
2024/03/31 08:09:57;;;;;;;41.35;8.68;;;;;;;13.15;70.64;96498.19;5015956;28;20091;-78
2024/03/31 08:12:22;;;;;;;32.13;7.80;;;;;;;13.27;70.47;96503.88;5022575;28;20032;-77
2024/03/31 08:14:48;;;;;;;37.05;7.95;;;;;;;13.44;70.07;96517.53;5009913;28;20033;-77
2024/03/31 08:17:14;;;;;;;35.05;8.38;;;;;;;13.50;69.12;96510.94;5027346;28;20074;-78
2024/03/31 08:19:41;;;;;;;33.45;7.82;;;;;;;13.47;68.30;96481.00;5041625;28;20029;-77
2024/03/31 08:22:07;;;;;;;33.85;8.52;;;;;;;13.52;67.97;96476.28;5030198;28;20393;-78
2024/03/31 08:24:33;;;;;;;40.28;7.82;;;;;;;13.69;68.16;96495.38;5041191;28;20029;-77
2024/03/31 08:26:58;;;;;;;33.63;7.53;;;;;;;13.66;68.20;96477.03;5020896;28;20024;-77
2024/03/31 08:29:24;;;;;;;34.15;7.68;;;;;;;13.88;67.91;96487.84;5042460;28;20045;-77
2024/03/31 08:31:50;;;;;;;39.58;8.13;;;;;;;14.03;66.83;96491.31;5038066;28;20059;-78
2024/03/31 08:34:15;;;;;;;33.03;7.00;;;;;;;13.90;66.21;96467.81;5020587;28;20079;-77
2024/03/31 08:36:40;;;;;;;31.13;7.25;;;;;;;14.01;66.32;96482.69;5016567;28;20391;-78
2024/03/31 08:39:09;;;;;;;38.40;7.72;;;;;;;14.07;65.93;96484.19;5039266;28;20028;-77
2024/03/31 08:41:44;;;;;;;42.53;7.65;;;;;;;14.13;65.17;96489.16;5045650;28;20055;-77
2024/03/31 08:44:11;;;;;;;37.13;8.35;;;;;;;14.09;65.52;96471.16;5046224;28;20108;-77
2024/03/31 08:46:37;;;;;;;37.75;7.85;;;;;;;14.13;65.99;96493.78;5026921;28;20029;-78
2024/03/31 08:49:02;;;;;;;31.42;7.53;;;;;;;14.15;66.50;96480.72;5034441;28;20036;-78
2024/03/31 08:51:27;;;;;;;37.28;7.65;;;;;;;14.24;66.62;96478.88;5010961;28;20028;-77
2024/03/31 08:53:54;;;;;;;31.92;7.57;;;;;;;14.34;66.31;96475.94;5042750;28;20051;-77
2024/03/31 08:56:19;;;;;;;36.65;7.85;;;;;;;14.39;66.37;96487.47;5024798;28;20078;-77
2024/03/31 08:58:45;;;;;;;35.38;8.15;;;;;;;14.32;65.89;96473.56;5014574;28;20020;-78
2024/03/31 09:01:13;;;;;;;44.33;8.95;;;;;;;14.48;65.73;96487.50;5012722;28;20529;-77
2024/03/31 09:03:39;;;;;;;35.10;8.23;;;;;;;14.49;64.90;96472.84;5025895;28;20476;-77
2024/03/31 09:06:04;;;;;;;37.70;7.63;;;;;;;14.45;65.09;96475.38;5017629;28;20025;-77
2024/03/31 09:08:30;;;;;;;38.13;8.43;;;;;;;14.33;64.82;96444.53;5015004;28;20092;-77
2024/03/31 09:10:55;;;;;;;38.35;8.02;;;;;;;14.52;65.01;96472.22;5028388;28;20049;-77
2024/03/31 09:13:20;;;;;;;42.17;7.88;;;;;;;14.53;63.59;96465.69;5018326;28;20048;-78
2024/03/31 09:15:46;;;;;;;41.67;9.05;;;;;;;14.68;64.06;96473.41;5035149;28;20032;-77
2024/03/31 09:18:11;;;;;;;43.85;8.85;;;;;;;14.75;62.99;96471.03;5042865;28;20052;-77
2024/03/31 09:20:36;;;;;;;49.58;8.85;;;;;;;14.79;62.54;96461.19;5029713;28;20047;-77
2024/03/31 09:23:02;;;;;;;43.95;9.05;;;;;;;14.87;62.58;96463.13;5021704;28;20024;-76
2024/03/31 09:25:28;;;;;;;38.33;8.27;;;;;;;15.03;62.60;96464.28;5037671;28;20029;-76
2024/03/31 09:27:55;;;;;;;42.40;8.85;;;;;;;15.09;62.54;96452.19;5041941;28;20468;-77
2024/03/31 09:30:23;;;;;;;48.35;9.73;;;;;;;15.26;60.17;96461.47;5028066;28;20024;-76
2024/03/31 09:32:48;;;;;;;45.42;10.00;;;;;;;15.27;60.13;96463.84;5024312;28;20029;-77
2024/03/31 09:35:15;;;;;;;44.42;9.35;;;;;;;15.17;60.21;96440.53;5050560;28;20423;-77
2024/03/31 09:37:41;;;;;;;37.08;8.40;;;;;;;15.34;60.28;96452.53;5021614;28;20137;-76
2024/03/31 09:40:07;;;;;;;38.95;8.65;;;;;;;15.40;60.06;96446.66;5022959;28;20107;-77
2024/03/31 09:42:33;;;;;;;48.05;9.65;;;;;;;15.20;60.03;96420.94;5042056;28;20033;-77
2024/03/31 09:45:00;;;;;;;50.58;9.43;;;;;;;15.35;59.57;96443.28;5019906;28;20075;-76
2024/03/31 09:47:29;;;;;;;41.00;9.57;;;;;;;15.43;60.16;96450.63;5015596;28;20029;-76
2024/03/31 09:50:02;;;;;;;38.17;8.90;;;;;;;15.45;60.89;96443.81;5015646;28;20049;-76
2024/03/31 09:52:32;;;;;;;42.15;9.75;;;;;;;15.48;60.98;96451.31;5033464;28;20037;-76
2024/03/31 09:54:59;;;;;;;47.13;9.00;;;;;;;15.55;61.41;96448.13;5036352;28;20403;-77
2024/03/31 09:57:29;;;;;;;48.17;9.55;;;;;;;15.52;61.98;96421.66;5023475;28;20085;-76
2024/03/31 09:59:58;;;;;;;53.53;9.40;;;;;;;15.79;60.80;96448.44;5040126;28;20119;-77
2024/03/31 10:02:26;;;;;;;50.53;9.05;;;;;;;15.88;61.59;96452.75;5040107;28;20476;-77
2024/03/31 10:04:56;;;;;;;51.03;9.60;;;;;;;15.82;61.03;96412.53;5006150;28;20101;-76
2024/03/31 10:07:21;;;;;;;44.78;9.35;;;;;;;16.03;60.07;96443.31;5042783;28;20059;-76
2024/03/31 10:09:47;;;;;;;41.83;10.00;;;;;;;16.04;59.55;96439.47;5003236;28;20108;-76
2024/03/31 10:12:13;;;;;;;49.17;9.90;;;;;;;16.02;59.17;96444.44;5033282;28;20044;-77
2024/03/31 10:14:39;;;;;;;54.35;10.48;;;;;;;16.13;59.01;96444.88;5020441;28;20025;-76
2024/03/31 10:17:05;;;;;;;43.90;9.57;;;;;;;16.17;58.96;96449.38;5006126;28;20097;-76
2024/03/31 10:19:31;;;;;;;48.53;9.80;;;;;;;16.30;58.41;96453.81;5020540;28;20025;-76
2024/03/31 10:21:58;;;;;;;44.25;9.30;;;;;;;16.46;58.46;96452.16;5032016;28;20029;-76
2024/03/31 10:24:24;;;;;;;48.95;9.90;;;;;;;16.56;58.69;96440.97;5047243;28;20021;-76
2024/03/31 10:26:49;;;;;;;43.40;9.13;;;;;;;16.65;58.25;96431.97;5021924;28;20037;-76
2024/03/31 10:29:16;;;;;;;47.92;10.82;;;;;;;16.76;57.86;96446.81;5018170;28;20060;-76
2024/03/31 10:31:41;;;;;;;46.83;9.35;;;;;;;16.70;58.31;96434.53;5030390;28;20083;-76
2024/03/31 10:34:07;;;;;;;42.28;10.15;;;;;;;16.73;58.10;96436.59;5038687;28;20029;-77
2024/03/31 10:36:32;;;;;;;53.00;10.27;;;;;;;16.75;58.20;96437.06;5051123;28;20399;-77
2024/03/31 10:38:58;;;;;;;45.42;9.52;;;;;;;16.92;58.75;96443.22;5040101;28;20074;-76
2024/03/31 10:41:24;;;;;;;50.35;10.07;;;;;;;17.05;60.17;96435.97;5046751;28;20043;-77
2024/03/31 10:43:50;;;;;;;48.35;9.40;;;;;;;17.19;59.45;96441.94;5013643;28;20025;-76
2024/03/31 10:46:16;;;;;;;48.42;9.43;;;;;;;17.27;57.54;96432.94;5025519;28;20044;-76
2024/03/31 10:48:42;;;;;;;40.78;9.82;;;;;;;17.31;58.81;96425.72;5013325;28;20016;-76
2024/03/31 10:51:14;;;;;;;47.83;9.30;;;;;;;17.34;57.52;96422.31;5030513;28;20044;-76
2024/03/31 10:53:40;;;;;;;41.40;9.00;;;;;;;17.55;58.64;96433.28;5031109;28;20517;-76
2024/03/31 10:56:07;;;;;;;34.58;8.07;;;;;;;17.72;58.96;96436.63;5043009;28;20090;-77
2024/03/31 10:58:32;;;;;;;38.15;6.90;;;;;;;17.91;57.43;96434.25;5034985;28;20468;-76
2024/03/31 11:01:01;;;;;;;37.55;7.47;;;;;;;18.16;53.92;96440.56;5051781;28;20115;-76
2024/03/31 11:03:35;;;;;;;39.78;7.43;;;;;;;18.24;52.82;96433.44;5039038;28;20059;-76
2024/03/31 11:06:03;;;;;;;33.67;7.88;;;;;;;18.41;52.41;96452.34;5035885;28;20513;-76
2024/03/31 11:08:29;;;;;;;36.90;7.43;;;;;;;18.51;52.62;96438.28;5021345;28;20024;-76
2024/03/31 11:10:54;;;;;;;29.67;7.22;;;;;;;18.57;52.39;96431.50;5046977;28;20491;-77
2024/03/31 11:13:20;;;;;;;40.55;7.63;;;;;;;18.60;51.71;96428.09;5019264;28;20025;-77
2024/03/31 11:15:46;;;;;;;36.47;7.68;;;;;;;18.65;51.64;96446.19;5031979;28;20044;-76
2024/03/31 11:18:11;;;;;;;44.05;8.35;;;;;;;18.71;53.28;96442.91;5033963;28;20033;-76